17TE weather

Comfort Airpark
Comfort, Texas, United States

Public forecast

Using degrees Fahrenheit for public forecast. Weather courtesy of forecast.io.

Closest aviation weather report (METAR) to Comfort Airpark

Closest report is Kerrville Municipal Louis Schreiner Field, 8.1 nm (15.0 km) WNW. Retrieved 2019/11/22 01:35 UTC (0 seconds ago):

KERV 220135Z AUTO 00000KT 10SM BKN033 21/17 A2993 RMK AO2 T02050169

Closest aviation forecast (TAF) to Comfort Airpark

Closest forecast is San Antonio International Airport, 34.1 nm (63.2 km) SE. Retrieved 2019-11-22 00:36 UTC (40 minutes ago):

TAF KSAT 212332Z 2200/2306 15011KT P6SM BKN040 FM220400 15009KT P6SM BKN015 FM221000 17006KT 6SM BR OVC008 FM221200 17004KT 5SM BR VCSH OVC005 FM221600 36012KT P6SM VCSH OVC011 FM222300 35010KT P6SM SCT025